ROMMA est une association bénévole à but non lucratif. Votre soutien est indispensable : ADHERER à ROMMA ou FAIRE un DON

Taninges - (74, Haute-Savoie)

Vallée du Giffre (635 m)   Longitude: 06° 35' 38" E   Latitude: 46° 06' 21" N Station romma n°98
 

Détail journalier du     <<     >>

Température Precipitation Humidité Pression Vent Dir Rafale Dir. rafale Ensol.
Heure (°C) (mm) (%) (hPa) (km/h) (km/h) (min)
01:00 11.909610191ESE5ESE0
02:00 12.809610182E6O0
03:00 13.10.29610182OSO6OSO0
04:00 13.10.69610181OSO5OSO0
05:00 12.90.296101805ESE0
06:00 12.409610181E5E0
07:00 12.509610181NE5NO0
08:00 12.9099101803ONO10
09:00 13.609510182SSE6SSE5
10:00 15.309010182SSE6O20
11:00 16.608410186OSO18OSO55
12:00 17.707610177O18OSO35
13:00 19.306910179OSO21SO50
14:00 19.7064101612O24O55
15:00 20.4055101513O26OSO45
16:00 20.7053101512O27O60
17:00 21.104810158O23O50
18:00 20.904910157ONO21NNO55
19:00 19.305310159O21NO35
20:00 19.105910164ONO13ONO25
21:00 16.307310171N8NE0
22:00 15.407110172SO8ENE0
23:00 13.108510182SSO10ENE0
minuit 12.008710182E8E0

Graphique du 13-08-2019

 

Serveur OMMA